Time;durP1;ratioP1;P1;durP2;ratioP2;P2;SDS_P1;SDS_P2;PMS_P1;PMS_P2;Temp;Humidity;BMP_temperature;BMP_pressure;BME280_temperature;BME280_humidity;BME280_pressure;Samples;Min_cycle;Max_cycle;Signal;HPM_P1;HPM_P2
2023/03/30 00:02:21;;;;;;;13.18;6.88;;;12.10;99.90;;;;;;5050530;28;20037;-67
2023/03/30 00:04:50;;;;;;;9.85;5.90;;;12.10;99.90;;;;;;5049714;28;20068;-67
2023/03/30 00:07:17;;;;;;;11.43;6.32;;;12.20;99.90;;;;;;5048906;28;20052;-68
2023/03/30 00:09:43;;;;;;;8.90;6.35;;;12.20;99.90;;;;;;5048775;28;20063;-68
2023/03/30 00:12:14;;;;;;;10.02;5.60;;;12.20;99.90;;;;;;5049045;28;20037;-68
2023/03/30 00:14:41;;;;;;;8.60;5.93;;;12.20;99.90;;;;;;5050520;28;20051;-67
2023/03/30 00:17:08;;;;;;;9.55;5.40;;;12.20;99.90;;;;;;5049058;28;20040;-70
2023/03/30 00:19:38;;;;;;;9.98;5.97;;;12.20;99.90;;;;;;5048695;28;20041;-67
2023/03/30 00:22:08;;;;;;;9.07;5.93;;;12.20;99.90;;;;;;5049046;28;20041;-67
2023/03/30 00:24:35;;;;;;;11.02;5.82;;;12.20;99.90;;;;;;5048785;28;20654;-67
2023/03/30 00:27:02;;;;;;;6.95;5.20;;;12.20;99.90;;;;;;5048442;28;20494;-68
2023/03/30 00:29:28;;;;;;;8.68;5.50;;;12.20;99.90;;;;;;5049998;28;20505;-67
2023/03/30 00:31:54;;;;;;;11.88;6.20;;;12.20;99.90;;;;;;5048881;28;20040;-67
2023/03/30 00:34:19;;;;;;;10.00;5.60;;;12.10;99.90;;;;;;5048196;28;20555;-67
2023/03/30 00:36:47;;;;;;;7.95;5.50;;;12.10;99.90;;;;;;5048959;28;20052;-67
2023/03/30 00:39:17;;;;;;;10.65;5.95;;;12.10;99.90;;;;;;5048983;28;20049;-67
2023/03/30 00:41:43;;;;;;;10.25;5.63;;;12.10;99.90;;;;;;5031440;28;20068;-67
2023/03/30 00:44:48;;;;;;;10.18;5.60;;;12.10;99.90;;;;;;5049944;28;20075;-67
2023/03/30 00:47:15;;;;;;;12.57;6.30;;;12.10;99.90;;;;;;5032843;28;20064;-67
2023/03/30 00:49:43;;;;;;;9.60;5.50;;;12.10;99.90;;;;;;5048340;28;20130;-67
2023/03/30 00:52:10;;;;;;;12.93;5.57;;;12.10;99.90;;;;;;5048279;28;20043;-67
2023/03/30 00:54:38;;;;;;;8.50;5.68;;;12.10;99.90;;;;;;5048121;28;20400;-67
2023/03/30 00:57:06;;;;;;;11.25;5.53;;;12.00;99.90;;;;;;5048598;28;20078;-67
2023/03/30 00:59:32;;;;;;;12.07;5.80;;;12.00;99.90;;;;;;5048237;28;20131;-67
2023/03/30 01:01:59;;;;;;;9.73;5.50;;;12.10;99.90;;;;;;5047690;28;20052;-67
2023/03/30 01:04:24;;;;;;;9.00;5.63;;;12.10;99.90;;;;;;5051168;28;20052;-67
2023/03/30 01:06:51;;;;;;;11.43;5.25;;;12.10;99.90;;;;;;5035636;28;20044;-67
2023/03/30 01:09:17;;;;;;;8.20;4.57;;;12.10;99.90;;;;;;5053176;28;20440;-67
2023/03/30 01:11:44;;;;;;;13.45;5.40;;;12.10;99.90;;;;;;5052299;28;20120;-67
2023/03/30 01:14:13;;;;;;;10.25;5.47;;;12.10;99.90;;;;;;5052236;28;20494;-67
2023/03/30 01:16:54;;;;;;;7.78;4.90;;;12.10;99.90;;;;;;5053356;28;20102;-67
2023/03/30 01:19:28;;;;;;;9.63;4.38;;;12.10;99.90;;;;;;5052185;28;20049;-67
2023/03/30 01:22:13;;;;;;;7.53;4.45;;;12.20;99.90;;;;;;5052852;28;20123;-67
2023/03/30 01:24:54;;;;;;;8.00;4.53;;;12.20;99.90;;;;;;5051731;28;20065;-67
2023/03/30 01:27:53;;;;;;;7.38;4.13;;;12.20;99.90;;;;;;5051957;28;20049;-67
2023/03/30 01:30:40;;;;;;;10.32;4.68;;;12.30;99.90;;;;;;5051327;28;20091;-67
2023/03/30 01:33:24;;;;;;;7.07;4.35;;;12.30;99.90;;;;;;5051705;28;20103;-67
2023/03/30 01:36:06;;;;;;;10.70;4.40;;;12.40;99.90;;;;;;5051691;28;20402;-67
2023/03/30 01:38:53;;;;;;;6.13;4.07;;;12.40;99.90;;;;;;5051747;28;20106;-67
2023/03/30 01:41:41;;;;;;;8.30;4.65;;;12.40;99.90;;;;;;5035307;28;20150;-67
2023/03/30 01:44:25;;;;;;;6.05;3.55;;;12.40;99.90;;;;;;5051114;28;20044;-68
2023/03/30 01:46:57;;;;;;;7.93;3.35;;;12.40;99.90;;;;;;5052867;28;20525;-67
2023/03/30 01:49:30;;;;;;;10.32;4.70;;;12.40;99.90;;;;;;5034772;28;20528;-68
2023/03/30 01:52:11;;;;;;;7.85;3.90;;;12.30;99.90;;;;;;5051934;28;20425;-68
2023/03/30 01:54:45;;;;;;;7.72;3.92;;;12.30;99.90;;;;;;5051356;28;20057;-67
2023/03/30 01:57:50;;;;;;;10.30;4.20;;;12.20;99.90;;;;;;5052150;28;20048;-67
2023/03/30 02:00:20;;;;;;;7.50;3.60;;;12.10;99.90;;;;;;5013705;28;20056;-68
2023/03/30 02:03:09;;;;;;;7.38;3.92;;;12.10;99.90;;;;;;5013437;28;20498;-67
2023/03/30 02:05:35;;;;;;;6.50;4.05;;;12.00;99.90;;;;;;5029601;28;20049;-67
2023/03/30 02:08:10;;;;;;;5.70;3.65;;;12.00;99.90;;;;;;5013321;28;20156;-67
2023/03/30 02:10:37;;;;;;;8.45;4.05;;;12.00;99.90;;;;;;5012807;28;20049;-67
2023/03/30 02:13:05;;;;;;;7.05;4.07;;;12.00;99.90;;;;;;5029843;28;20389;-67
2023/03/30 02:15:44;;;;;;;6.63;3.65;;;12.00;99.90;;;;;;5028674;28;20047;-67
2023/03/30 02:18:10;;;;;;;9.90;4.20;;;12.00;99.90;;;;;;5012794;28;20072;-68
2023/03/30 02:20:37;;;;;;;7.18;3.97;;;12.10;99.90;;;;;;5013152;28;20045;-67
2023/03/30 02:23:04;;;;;;;10.27;3.78;;;12.10;99.90;;;;;;5029632;28;20072;-67
2023/03/30 02:25:32;;;;;;;8.48;3.75;;;12.20;99.90;;;;;;5013028;28;20390;-67
2023/03/30 02:27:57;;;;;;;11.23;4.40;;;12.20;99.90;;;;;;5029675;28;20033;-67
2023/03/30 02:30:23;;;;;;;8.00;3.75;;;12.20;99.90;;;;;;5012932;28;20453;-67
2023/03/30 02:32:53;;;;;;;7.28;4.45;;;12.20;99.90;;;;;;5012369;28;20410;-67
2023/03/30 02:35:46;;;;;;;8.60;4.60;;;12.20;99.90;;;;;;5036705;28;20405;-67
2023/03/30 02:38:50;;;;;;;9.05;4.05;;;12.20;99.90;;;;;;5051957;28;20044;-67
2023/03/30 02:41:47;;;;;;;10.15;3.53;;;12.20;99.90;;;;;;5035453;28;20048;-67
2023/03/30 02:44:31;;;;;;;7.38;3.67;;;12.20;99.90;;;;;;5051688;28;20049;-67
2023/03/30 02:47:22;;;;;;;6.93;3.10;;;12.20;99.90;;;;;;5051093;28;20099;-67
2023/03/30 02:50:07;;;;;;;6.28;3.20;;;12.20;99.90;;;;;;5050226;28;20087;-67
2023/03/30 02:52:43;;;;;;;9.00;2.90;;;12.10;99.90;;;;;;5049616;28;20493;-67
2023/03/30 02:55:24;;;;;;;8.05;3.17;;;12.10;99.90;;;;;;5050171;28;20045;-67
2023/03/30 02:57:54;;;;;;;8.50;3.38;;;12.00;99.90;;;;;;5051438;28;20033;-67
2023/03/30 03:00:40;;;;;;;9.65;3.13;;;12.00;99.90;;;;;;5049608;28;20136;-67
2023/03/30 03:03:26;;;;;;;6.60;2.95;;;12.00;99.90;;;;;;5051483;28;20048;-67
2023/03/30 03:05:54;;;;;;;11.15;3.90;;;11.90;99.90;;;;;;5049991;28;20049;-67
2023/03/30 03:08:23;;;;;;;9.95;3.10;;;11.90;99.90;;;;;;5050533;28;20074;-67
2023/03/30 03:10:50;;;;;;;;;;;11.90;99.90;;;;;;5050696;28;20048;-67
2023/03/30 03:13:17;;;;;;;9.70;2.65;;;11.90;99.90;;;;;;5050278;28;20388;-67
2023/03/30 03:15:45;;;;;;;3.80;2.30;;;11.90;99.90;;;;;;5049373;28;20047;-67
2023/03/30 03:18:11;;;;;;;6.20;2.60;;;12.00;99.90;;;;;;5049762;28;20048;-67
2023/03/30 03:20:38;;;;;;;5.43;3.08;;;12.00;99.90;;;;;;5049180;28;20141;-67
2023/03/30 03:23:04;;;;;;;7.30;3.00;;;12.00;99.90;;;;;;5050614;28;20049;-67
2023/03/30 03:25:30;;;;;;;7.85;2.80;;;12.00;99.90;;;;;;5050876;28;20426;-67
2023/03/30 03:27:57;;;;;;;6.00;2.45;;;12.10;99.90;;;;;;5050350;28;20098;-67
2023/03/30 03:30:24;;;;;;;8.57;2.47;;;12.10;99.90;;;;;;5051120;28;20075;-67
2023/03/30 03:32:50;;;;;;;6.53;1.98;;;12.10;99.90;;;;;;5049533;28;20493;-67
2023/03/30 03:35:16;;;;;;;5.60;2.47;;;12.20;99.90;;;;;;5049290;28;20413;-67
2023/03/30 03:37:42;;;;;;;8.15;2.45;;;12.20;99.90;;;;;;5049475;28;20045;-67
2023/03/30 03:40:11;;;;;;;7.30;2.35;;;12.20;99.90;;;;;;5049574;28;20045;-67
2023/03/30 03:42:37;;;;;;;8.95;2.60;;;12.20;99.90;;;;;;5050105;28;20120;-67
2023/03/30 03:45:04;;;;;;;5.85;2.40;;;12.20;99.90;;;;;;5049507;28;20508;-67
2023/03/30 03:47:34;;;;;;;7.88;2.60;;;12.20;99.90;;;;;;5049246;28;20044;-67
2023/03/30 03:50:02;;;;;;;7.40;2.90;;;12.20;99.90;;;;;;5048525;28;20073;-67
2023/03/30 03:52:30;;;;;;;9.25;2.55;;;12.20;99.90;;;;;;5049065;28;20073;-67
2023/03/30 03:54:55;;;;;;;5.85;2.38;;;12.20;99.90;;;;;;5049350;28;20045;-67
2023/03/30 03:57:24;;;;;;;10.57;2.67;;;12.10;99.90;;;;;;5050194;28;20041;-67
2023/03/30 03:59:51;;;;;;;9.63;2.50;;;12.20;99.90;;;;;;5049427;28;20402;-67
2023/03/30 04:02:17;;;;;;;5.82;2.50;;;12.20;99.90;;;;;;5032332;28;20558;-67
2023/03/30 04:04:43;;;;;;;6.43;2.17;;;12.20;99.90;;;;;;5048866;28;20044;-67
2023/03/30 04:07:10;;;;;;;7.63;2.40;;;12.20;99.90;;;;;;5048926;28;20041;-67
2023/03/30 04:09:36;;;;;;;9.75;2.10;;;12.30;99.90;;;;;;5031937;28;20045;-67
2023/03/30 04:12:02;;;;;;;10.55;2.08;;;12.30;99.90;;;;;;5050471;28;20037;-67
2023/03/30 04:14:27;;;;;;;9.40;2.40;;;12.30;99.90;;;;;;5048939;28;20401;-67
2023/03/30 04:16:56;;;;;;;11.07;2.85;;;12.40;99.90;;;;;;5049690;28;20040;-68
2023/03/30 04:19:24;;;;;;;6.93;2.58;;;12.30;99.90;;;;;;5048795;28;20092;-67
2023/03/30 04:21:50;;;;;;;12.65;2.85;;;12.40;99.90;;;;;;5050082;28;20052;-67
2023/03/30 04:24:16;;;;;;;8.65;2.67;;;12.40;99.90;;;;;;5049283;28;20095;-67
2023/03/30 04:26:47;;;;;;;7.75;2.72;;;12.50;99.90;;;;;;5048548;28;20060;-67
2023/03/30 04:29:15;;;;;;;7.40;2.15;;;12.40;99.90;;;;;;5048625;28;20049;-67
2023/03/30 04:31:45;;;;;;;7.22;2.65;;;12.50;99.90;;;;;;5048152;28;20516;-67
2023/03/30 04:34:12;;;;;;;8.50;2.55;;;12.50;99.90;;;;;;5048626;28;20049;-67
2023/03/30 04:36:42;;;;;;;10.38;2.45;;;12.50;99.90;;;;;;5048628;28;20037;-67
2023/03/30 04:39:09;;;;;;;;;;;12.50;99.90;;;;;;5049052;28;20041;-67
2023/03/30 04:41:36;;;;;;;7.65;3.05;;;12.50;99.90;;;;;;5031785;28;19916;-67
2023/03/30 04:44:04;;;;;;;11.05;2.85;;;12.50;99.90;;;;;;5049636;28;20489;-67
2023/03/30 04:46:31;;;;;;;6.28;2.60;;;12.50;99.90;;;;;;5047632;28;20045;-67
2023/03/30 04:48:57;;;;;;;11.75;2.55;;;12.50;99.90;;;;;;5031737;28;20390;-67
2023/03/30 04:51:23;;;;;;;12.85;2.70;;;12.40;99.90;;;;;;5048434;28;20095;-67
2023/03/30 04:53:49;;;;;;;9.68;3.20;;;12.50;99.90;;;;;;5047684;28;20049;-67
2023/03/30 04:56:15;;;;;;;7.05;2.70;;;12.50;99.90;;;;;;5048174;28;20050;-67
2023/03/30 04:58:41;;;;;;;7.75;3.03;;;12.40;99.90;;;;;;5048965;28;20041;-67
2023/03/30 05:01:07;;;;;;;8.32;3.10;;;12.40;99.90;;;;;;5048121;28;20041;-67
2023/03/30 05:03:34;;;;;;;10.73;3.13;;;12.40;99.90;;;;;;5048103;28;20063;-67
2023/03/30 05:06:00;;;;;;;10.43;3.47;;;12.40;99.90;;;;;;5048759;28;20485;-67
2023/03/30 05:08:26;;;;;;;10.88;3.13;;;12.30;99.90;;;;;;5049306;28;20037;-67
2023/03/30 05:10:52;;;;;;;10.07;2.70;;;12.40;99.90;;;;;;5048044;28;20459;-67
2023/03/30 05:13:18;;;;;;;10.00;3.05;;;12.30;99.90;;;;;;5047590;28;20035;-67
2023/03/30 05:15:43;;;;;;;12.57;3.15;;;12.30;99.90;;;;;;5047885;28;20420;-67
2023/03/30 05:18:10;;;;;;;9.70;3.25;;;12.30;99.90;;;;;;5049410;28;20033;-67
2023/03/30 05:20:35;;;;;;;8.18;3.22;;;12.30;99.90;;;;;;5047332;28;20048;-67
2023/03/30 05:23:01;;;;;;;9.82;3.10;;;12.30;99.90;;;;;;5049158;28;20053;-67
2023/03/30 05:25:27;;;;;;;10.25;3.58;;;12.30;99.90;;;;;;5047906;28;20485;-67
2023/03/30 05:27:53;;;;;;;11.10;3.80;;;12.30;99.90;;;;;;5047558;28;20045;-67
2023/03/30 05:30:19;;;;;;;7.90;3.05;;;12.30;99.90;;;;;;5047628;28;20045;-67
2023/03/30 05:32:45;;;;;;;9.45;2.72;;;12.30;99.90;;;;;;5048018;28;20455;-66
2023/03/30 05:35:11;;;;;;;6.45;2.72;;;12.30;99.90;;;;;;5047152;28;20037;-67
2023/03/30 05:37:37;;;;;;;9.02;3.92;;;12.30;99.90;;;;;;5049091;28;20053;-67
2023/03/30 05:40:08;;;;;;;13.77;3.60;;;12.30;99.90;;;;;;5049031;28;20037;-67
2023/03/30 05:42:35;;;;;;;11.65;3.80;;;12.30;99.90;;;;;;5047478;28;20048;-67
2023/03/30 05:45:01;;;;;;;7.88;4.05;;;12.30;99.90;;;;;;5047880;28;20045;-67
2023/03/30 05:47:27;;;;;;;9.27;3.58;;;12.30;99.90;;;;;;5049049;28;20045;-67
2023/03/30 05:49:53;;;;;;;11.30;3.60;;;12.30;99.90;;;;;;5050126;28;20056;-67
2023/03/30 05:52:20;;;;;;;10.20;3.47;;;12.30;99.90;;;;;;5051607;28;20401;-67
2023/03/30 05:54:46;;;;;;;7.72;3.97;;;12.30;99.90;;;;;;5050727;28;20118;-67
2023/03/30 05:57:12;;;;;;;7.57;3.28;;;12.30;99.90;;;;;;5052511;28;20481;-67
2023/03/30 05:59:38;;;;;;;10.02;3.67;;;12.30;99.90;;;;;;5052292;28;20072;-66
2023/03/30 06:02:05;;;;;;;10.32;3.20;;;12.40;99.90;;;;;;5051750;28;20036;-67
2023/03/30 06:04:32;;;;;;;8.40;3.10;;;12.30;99.90;;;;;;5034357;28;20072;-67
2023/03/30 06:06:58;;;;;;;9.95;4.03;;;12.40;99.90;;;;;;5051196;28;20080;-67
2023/03/30 06:09:25;;;;;;;6.43;3.00;;;12.40;99.90;;;;;;5051490;28;20123;-67
2023/03/30 06:11:51;;;;;;;13.90;3.83;;;12.40;99.90;;;;;;5052220;28;20066;-67
2023/03/30 06:14:17;;;;;;;13.02;5.25;;;12.40;99.90;;;;;;5050755;28;20464;-67
2023/03/30 06:16:43;;;;;;;8.65;2.55;;;12.40;99.90;;;;;;5050267;28;20044;-66
2023/03/30 06:19:09;;;;;;;11.02;3.00;;;12.40;99.90;;;;;;5050705;28;20120;-66
2023/03/30 06:21:35;;;;;;;10.07;2.45;;;12.40;99.90;;;;;;5050953;28;20056;-67
2023/03/30 06:24:00;;;;;;;10.13;3.58;;;12.40;99.90;;;;;;5050027;28;20501;-67
2023/03/30 06:26:27;;;;;;;7.55;2.95;;;12.50;99.90;;;;;;5050603;28;20380;-66
2023/03/30 06:28:52;;;;;;;11.15;2.83;;;12.60;99.90;;;;;;5050583;28;20047;-67
2023/03/30 06:31:18;;;;;;;16.10;4.22;;;12.60;99.90;;;;;;5051665;28;20044;-66
2023/03/30 06:33:44;;;;;;;8.15;2.45;;;12.60;99.90;;;;;;5051641;28;20033;-66
2023/03/30 06:36:12;;;;;;;10.90;2.60;;;12.60;99.90;;;;;;5053015;28;20080;-66
2023/03/30 06:38:38;;;;;;;9.15;2.70;;;12.60;99.90;;;;;;5052237;28;20041;-66
2023/03/30 06:41:07;;;;;;;9.63;2.70;;;12.60;99.90;;;;;;5051645;28;20047;-66
2023/03/30 06:43:33;;;;;;;8.85;2.63;;;12.60;99.90;;;;;;5052428;28;20037;-66
2023/03/30 06:45:59;;;;;;;17.13;2.97;;;12.50;99.90;;;;;;5052968;28;20045;-66
2023/03/30 06:48:25;;;;;;;15.18;3.42;;;12.50;99.90;;;;;;5052769;28;20036;-66
2023/03/30 06:50:52;;;;;;;12.88;2.67;;;12.50;99.90;;;;;;5052108;28;20041;-66
2023/03/30 06:53:18;;;;;;;12.13;3.58;;;12.40;99.90;;;;;;5051179;28;20079;-66
2023/03/30 06:55:51;;;;;;;12.85;2.90;;;12.40;99.90;;;;;;5052379;28;20037;-67
2023/03/30 06:58:17;;;;;;;16.08;3.72;;;12.40;99.90;;;;;;5051836;28;20041;-66
2023/03/30 07:00:43;;;;;;;17.45;3.85;;;12.40;99.90;;;;;;5050806;28;20472;-67
2023/03/30 07:03:09;;;;;;;13.55;3.58;;;12.40;99.90;;;;;;5051354;28;20477;-67
2023/03/30 07:05:35;;;;;;;21.17;4.18;;;12.30;99.90;;;;;;5050727;28;20203;-66
2023/03/30 07:08:00;;;;;;;15.95;3.78;;;12.30;99.90;;;;;;5051119;28;20048;-67
2023/03/30 07:10:26;;;;;;;13.57;3.53;;;12.30;99.90;;;;;;5050879;28;20053;-66
2023/03/30 07:12:52;;;;;;;16.70;4.38;;;12.30;99.90;;;;;;5051977;28;20044;-66
2023/03/30 07:15:18;;;;;;;15.77;3.70;;;12.30;99.90;;;;;;5050930;28;20103;-67
2023/03/30 07:17:44;;;;;;;13.82;4.13;;;12.20;99.90;;;;;;5050894;28;20033;-67
2023/03/30 07:20:14;;;;;;;15.27;3.55;;;12.20;99.90;;;;;;5050385;28;20044;-67
2023/03/30 07:22:41;;;;;;;19.40;3.70;;;12.20;99.90;;;;;;5050499;28;20474;-67
2023/03/30 07:25:08;;;;;;;16.77;4.20;;;12.20;99.90;;;;;;5050648;28;20060;-66
2023/03/30 07:27:35;;;;;;;15.15;3.22;;;12.20;99.90;;;;;;5050269;28;20124;-67
2023/03/30 07:30:02;;;;;;;11.07;2.92;;;12.20;99.90;;;;;;5050518;28;20037;-66
2023/03/30 07:32:28;;;;;;;21.58;4.00;;;12.20;99.90;;;;;;5051830;28;20122;-66
2023/03/30 07:34:54;;;;;;;18.58;4.05;;;12.10;99.90;;;;;;5049963;28;20073;-67
2023/03/30 07:37:20;;;;;;;18.08;4.22;;;12.10;99.90;;;;;;5050504;28;20044;-67
2023/03/30 07:39:45;;;;;;;23.13;4.03;;;12.10;99.90;;;;;;5051419;28;20049;-67
2023/03/30 07:42:11;;;;;;;15.20;3.83;;;12.10;99.90;;;;;;5051958;28;20040;-66
2023/03/30 07:44:37;;;;;;;23.48;5.75;;;12.10;99.90;;;;;;5051809;28;20041;-66
2023/03/30 07:47:05;;;;;;;18.83;3.63;;;12.10;99.90;;;;;;5049948;28;20052;-66
2023/03/30 07:49:31;;;;;;;15.98;3.63;;;12.10;99.90;;;;;;5050271;28;20060;-66
2023/03/30 07:51:58;;;;;;;21.40;4.18;;;12.10;99.90;;;;;;5050268;28;20116;-66
2023/03/30 07:54:24;;;;;;;19.25;4.25;;;12.10;99.90;;;;;;5051173;28;20159;-66
2023/03/30 07:56:51;;;;;;;19.70;5.03;;;12.10;99.90;;;;;;5050219;28;20052;-67
2023/03/30 07:59:21;;;;;;;15.88;3.38;;;12.10;99.90;;;;;;5050173;28;20116;-66
2023/03/30 08:01:49;;;;;;;22.42;4.90;;;12.00;99.90;;;;;;5049612;28;20080;-67
2023/03/30 08:04:18;;;;;;;23.10;4.93;;;12.10;99.90;;;;;;5051339;28;20060;-67
2023/03/30 08:06:44;;;;;;;21.90;4.50;;;12.00;99.90;;;;;;5050084;28;20040;-67
2023/03/30 08:09:11;;;;;;;18.38;4.03;;;12.00;99.90;;;;;;5049326;28;20076;-67
2023/03/30 08:11:37;;;;;;;24.40;4.65;;;12.00;99.90;;;;;;5051418;28;20045;-67
2023/03/30 08:14:04;;;;;;;23.02;4.45;;;12.00;99.90;;;;;;5049276;28;20041;-67
2023/03/30 08:16:30;;;;;;;19.98;5.05;;;12.00;99.90;;;;;;5050452;28;20041;-67
2023/03/30 08:18:56;;;;;;;21.10;4.38;;;12.00;99.90;;;;;;5051260;28;20052;-68
2023/03/30 08:21:24;;;;;;;25.17;4.40;;;12.00;99.90;;;;;;5049591;28;20041;-67
2023/03/30 08:23:56;;;;;;;25.38;5.72;;;12.00;99.90;;;;;;5049117;28;20095;-67
2023/03/30 08:26:22;;;;;;;22.27;5.22;;;12.00;99.90;;;;;;5049694;28;20055;-67
2023/03/30 08:28:48;;;;;;;21.40;5.18;;;12.00;99.90;;;;;;5049300;28;20049;-67
2023/03/30 08:31:16;;;;;;;21.65;4.63;;;12.00;99.90;;;;;;5051064;28;20500;-68
2023/03/30 08:33:46;;;;;;;20.33;5.38;;;12.00;99.90;;;;;;5032960;28;20123;-67
2023/03/30 08:36:12;;;;;;;30.08;4.78;;;12.10;99.90;;;;;;5050887;28;20045;-67
2023/03/30 08:38:38;;;;;;;22.65;6.05;;;12.20;99.90;;;;;;5050949;28;20107;-67
2023/03/30 08:41:23;;;;;;;25.25;4.85;;;12.20;99.90;;;;;;5050913;28;20069;-66
2023/03/30 08:44:00;;;;;;;19.48;4.32;;;12.30;99.90;;;;;;5049132;28;20124;-67
2023/03/30 08:46:27;;;;;;;22.10;4.53;;;12.30;99.90;;;;;;5051145;28;20045;-67
2023/03/30 08:48:56;;;;;;;21.63;4.93;;;12.40;99.90;;;;;;5050346;28;20047;-67
2023/03/30 08:51:29;;;;;;;22.52;5.28;;;12.40;99.90;;;;;;5049951;28;20428;-66
2023/03/30 08:54:00;;;;;;;24.48;4.57;;;12.50;99.90;;;;;;5050774;28;20037;-67
2023/03/30 08:56:30;;;;;;;19.17;4.47;;;12.60;99.90;;;;;;5051115;28;20591;-67
2023/03/30 08:59:05;;;;;;;26.35;4.57;;;12.80;99.90;;;;;;5048983;28;20505;-66
2023/03/30 09:01:52;;;;;;;27.48;4.57;;;12.90;99.90;;;;;;5050337;28;20124;-66
2023/03/30 09:04:36;;;;;;;19.00;4.40;;;13.00;99.90;;;;;;5045757;28;20045;-66
2023/03/30 09:07:39;;;;;;;16.80;4.80;;;13.00;99.90;;;;;;5047456;28;20048;-66
2023/03/30 09:10:11;;;;;;;17.13;4.00;;;13.00;99.90;;;;;;5078154;28;20085;-67
2023/03/30 09:12:40;;;;;;;17.83;4.30;;;13.00;99.90;;;;;;5032836;28;20041;-66
2023/03/30 09:15:17;;;;;;;16.38;4.32;;;13.10;99.90;;;;;;5050572;28;20060;-67
2023/03/30 09:17:59;;;;;;;18.00;4.50;;;13.10;99.90;;;;;;5050141;28;20071;-67
2023/03/30 09:20:30;;;;;;;13.85;3.08;;;13.10;99.90;;;;;;5049389;28;20544;-67
2023/03/30 09:23:00;;;;;;;18.13;3.58;;;13.10;99.90;;;;;;5050618;28;20129;-67
2023/03/30 09:25:43;;;;;;;23.33;5.95;;;13.10;99.90;;;;;;5051487;28;20064;-67
2023/03/30 09:28:32;;;;;;;18.52;5.18;;;13.10;99.90;;;;;;5053177;28;20052;-66
2023/03/30 09:31:19;;;;;;;18.55;4.30;;;13.00;99.90;;;;;;5054452;28;20412;-66
2023/03/30 09:34:06;;;;;;;20.65;5.55;;;12.90;99.90;;;;;;5052620;28;20044;-67
2023/03/30 09:36:46;;;;;;;18.77;4.07;;;12.80;99.90;;;;;;5052851;28;20044;-66
2023/03/30 09:39:17;;;;;;;;;;;12.70;99.90;;;;;;5053345;28;20045;-67
2023/03/30 09:41:51;;;;;;;21.92;4.45;;;12.80;99.90;;;;;;5053180;28;20373;-66
2023/03/30 09:44:35;;;;;;;17.40;3.90;;;12.80;99.90;;;;;;5054188;28;20036;-67
2023/03/30 09:47:18;;;;;;;20.95;4.40;;;12.90;99.90;;;;;;5035850;28;20048;-67
2023/03/30 09:49:44;;;;;;;19.40;4.38;;;12.90;99.90;;;;;;5054190;28;20041;-67
2023/03/30 09:52:22;;;;;;;18.75;3.88;;;12.90;99.90;;;;;;5053155;28;20399;-67
2023/03/30 09:54:48;;;;;;;22.20;3.70;;;12.80;99.90;;;;;;5053558;28;20515;-66
2023/03/30 09:57:29;;;;;;;23.73;3.45;;;12.90;99.90;;;;;;5053988;28;20033;-67
2023/03/30 09:59:57;;;;;;;17.15;4.20;;;13.00;99.90;;;;;;5052257;28;20080;-67
2023/03/30 10:02:26;;;;;;;17.58;4.13;;;13.00;99.90;;;;;;5052652;28;20049;-67
2023/03/30 10:04:52;;;;;;;19.38;4.15;;;13.10;99.90;;;;;;5053790;28;20109;-66
2023/03/30 10:07:25;;;;;;;16.50;3.70;;;13.10;99.90;;;;;;5052016;28;20469;-67
2023/03/30 10:09:51;;;;;;;20.08;3.60;;;13.20;99.90;;;;;;5052493;28;20423;-67
2023/03/30 10:12:17;;;;;;;14.05;3.88;;;13.20;99.90;;;;;;5052332;28;20095;-67
2023/03/30 10:14:44;;;;;;;20.00;4.80;;;13.30;99.90;;;;;;5052315;28;20411;-67
2023/03/30 10:17:23;;;;;;;13.27;3.50;;;13.40;99.90;;;;;;5052244;28;20036;-66
2023/03/30 10:20:11;;;;;;;20.97;4.33;;;13.40;99.90;;;;;;5053665;28;20072;-67
2023/03/30 10:22:48;;;;;;;25.05;4.47;;;13.40;99.90;;;;;;5051515;28;20114;-67
2023/03/30 10:25:20;;;;;;;17.48;3.88;;;13.50;99.90;;;;;;5053534;28;20110;-66
2023/03/30 10:27:48;;;;;;;21.00;4.60;;;13.50;99.90;;;;;;5051552;28;20045;-66
2023/03/30 10:30:20;;;;;;;19.70;4.75;;;13.50;99.90;;;;;;5052183;28;20088;-67
2023/03/30 10:32:46;;;;;;;20.27;4.60;;;13.50;99.90;;;;;;5052288;28;20033;-67
2023/03/30 10:35:18;;;;;;;20.60;4.95;;;13.70;99.90;;;;;;5051694;28;20033;-67
2023/03/30 10:37:46;;;;;;;23.15;4.60;;;13.80;99.90;;;;;;5050542;28;20107;-67
2023/03/30 10:40:20;;;;;;;19.77;4.57;;;14.00;99.90;;;;;;5050577;28;20049;-67
2023/03/30 10:42:51;;;;;;;18.17;4.95;;;14.20;99.90;;;;;;5050143;28;20076;-67
2023/03/30 10:45:27;;;;;;;21.67;3.78;;;14.40;99.90;;;;;;5050824;28;20048;-66
2023/03/30 10:48:15;;;;;;;22.65;4.55;;;14.50;99.90;;;;;;5051542;28;20155;-66
2023/03/30 10:51:06;;;;;;;23.10;5.03;;;14.50;99.90;;;;;;5052329;28;20049;-67
2023/03/30 10:53:51;;;;;;;26.00;4.95;;;14.50;99.90;;;;;;5053193;28;20041;-67
2023/03/30 10:56:43;;;;;;;19.98;4.22;;;14.50;99.90;;;;;;5034384;28;20041;-66
2023/03/30 10:59:30;;;;;;;27.95;5.40;;;14.50;99.90;;;;;;5051801;28;20128;-67
2023/03/30 11:02:38;;;;;;;26.90;4.90;;;14.50;99.90;;;;;;5052669;28;20044;-67
2023/03/30 11:05:15;;;;;;;20.60;4.88;;;14.70;99.90;;;;;;5049465;28;20049;-66
2023/03/30 11:08:24;;;;;;;18.58;4.47;;;14.90;99.90;;;;;;5051380;28;20482;-67
2023/03/30 11:10:57;;;;;;;29.40;5.10;;;15.10;99.90;;;;;;5045164;28;20080;-66
2023/03/30 11:13:40;;;;;;;23.15;4.10;;;15.20;99.90;;;;;;5050885;28;20048;-66
2023/03/30 11:16:17;;;;;;;19.05;4.57;;;15.40;99.90;;;;;;5050078;28;20124;-67
2023/03/30 11:18:59;;;;;;;21.05;4.75;;;15.60;99.90;;;;;;5051124;28;20033;-67
2023/03/30 11:21:49;;;;;;;20.05;4.75;;;15.90;99.90;;;;;;5049962;28;20056;-67
2023/03/30 11:24:22;;;;;;;26.33;6.07;;;16.40;99.90;;;;;;5050453;28;20057;-67
2023/03/30 11:27:13;;;;;;;25.30;7.07;;;16.80;99.90;;;;;;5049656;28;20099;-66
2023/03/30 11:29:47;;;;;;;22.65;5.53;;;17.10;99.90;;;;;;5049601;28;20513;-67
2023/03/30 11:32:34;;;;;;;21.60;5.22;;;16.90;99.90;;;;;;5050240;28;20045;-66
2023/03/30 11:35:14;;;;;;;21.45;5.47;;;16.60;99.90;;;;;;5049634;28;20080;-67
2023/03/30 11:38:09;;;;;;;24.67;5.43;;;16.20;99.90;;;;;;5050401;28;20520;-67
2023/03/30 11:40:47;;;;;;;21.92;4.85;;;16.10;99.90;;;;;;5049433;28;20125;-68
2023/03/30 11:43:16;;;;;;;24.33;4.85;;;16.10;99.90;;;;;;5049399;28;20044;-67
2023/03/30 11:45:52;;;;;;;18.80;4.25;;;16.30;99.90;;;;;;5050378;28;20460;-67
2023/03/30 11:48:38;;;;;;;22.15;5.57;;;16.40;99.90;;;;;;5050765;28;20116;-67
2023/03/30 11:51:19;;;;;;;26.25;5.05;;;16.20;99.90;;;;;;5049551;28;20122;-67
2023/03/30 11:54:24;;;;;;;31.27;5.25;;;16.00;99.90;;;;;;5050036;28;20033;-67
2023/03/30 11:57:05;;;;;;;22.38;5.35;;;15.70;99.90;;;;;;5011644;28;20045;-67
2023/03/30 11:59:31;;;;;;;21.27;4.30;;;15.50;99.90;;;;;;5011789;28;20041;-67
2023/03/30 12:02:11;;;;;;;20.25;4.20;;;15.20;99.90;;;;;;5011409;28;20173;-67
2023/03/30 12:04:51;;;;;;;19.00;4.88;;;14.90;99.90;;;;;;5011693;28;20532;-67
2023/03/30 12:07:51;;;;;;;17.08;3.95;;;14.60;99.90;;;;;;5011232;28;20564;-67
2023/03/30 12:10:22;;;;;;;23.20;5.28;;;14.50;99.90;;;;;;5027169;28;20062;-68
2023/03/30 12:12:50;;;;;;;24.05;4.75;;;14.50;99.90;;;;;;5011399;28;20073;-67
2023/03/30 12:15:43;;;;;;;21.65;5.03;;;14.80;99.90;;;;;;5011610;28;20084;-66
2023/03/30 12:18:27;;;;;;;21.13;5.40;;;15.40;99.90;;;;;;5011670;28;20100;-67
2023/03/30 12:21:04;;;;;;;25.95;5.25;;;15.50;99.90;;;;;;5027448;28;20512;-68
2023/03/30 12:23:36;;;;;;;22.02;5.50;;;15.70;99.90;;;;;;5027611;28;20532;-68
2023/03/30 12:26:16;;;;;;;21.58;5.85;;;16.00;99.90;;;;;;5027941;28;20049;-68
2023/03/30 12:29:15;;;;;;;20.40;5.03;;;16.40;99.90;;;;;;5011215;28;20510;-67
2023/03/30 12:32:04;;;;;;;24.05;5.97;;;16.30;99.90;;;;;;5027553;28;20114;-67
2023/03/30 12:34:35;;;;;;;20.73;4.85;;;16.10;99.90;;;;;;5049424;28;20037;-67
2023/03/30 12:37:11;;;;;;;25.42;5.22;;;16.10;99.90;;;;;;5048418;28;20041;-68
2023/03/30 12:39:49;;;;;;;19.83;5.20;;;16.00;99.90;;;;;;5048758;28;20048;-67
2023/03/30 12:42:33;;;;;;;33.25;8.10;;;15.80;99.90;;;;;;5047859;28;20051;-67
2023/03/30 12:45:22;;;;;;;23.30;5.18;;;15.80;99.90;;;;;;5049540;28;20505;-67
2023/03/30 12:48:01;;;;;;;20.48;5.03;;;16.20;99.90;;;;;;5047682;28;20048;-68
2023/03/30 12:50:33;;;;;;;24.13;5.30;;;16.40;99.90;;;;;;5048295;28;20081;-67
2023/03/30 12:53:18;;;;;;;22.40;5.30;;;16.10;99.90;;;;;;5048264;28;20040;-67
2023/03/30 12:56:05;;;;;;;24.55;5.85;;;15.80;99.90;;;;;;5049204;28;20033;-67
2023/03/30 12:58:37;;;;;;;19.75;5.07;;;15.70;99.90;;;;;;5031688;28;20312;-68
2023/03/30 13:01:41;;;;;;;26.70;5.18;;;15.60;99.90;;;;;;5053658;28;20048;-67
2023/03/30 13:04:20;;;;;;;24.33;5.28;;;15.60;99.90;;;;;;5053462;28;20459;-67
2023/03/30 13:06:56;;;;;;;23.67;5.15;;;15.60;99.90;;;;;;5053508;28;20386;-67
2023/03/30 13:09:26;;;;;;;29.67;5.13;;;15.90;99.90;;;;;;5053070;28;20124;-67